AAL1958 SAZN-SAZS
Flight info
| Callsign | AAL1958 |
|---|---|
| Flight time | 0h 41m |
| Altitude | 24000 |
| Route | EGOBO KOMVI ORERA BAR |
| Aircraft | B738/M-VGDW/C |
Departure
| Time | 2026-04-27 23:10 |
|---|---|
| Airport | Presidente Perón International Airport (SAZN) |
Arrival
| Time | 2026-04-27 23:51 |
|---|---|
| Airport | Teniente Luis Candelaria International Airport (SAZS) |
| Time | Latitude | Longitude | Altitude | Speed | Heading |
|---|---|---|---|---|---|
| 2026-04-27 22:49 | -38.95150 | -68.14115 | 895 ft | 0 kts | 179° |
| 2026-04-27 23:07 | -38.95156 | -68.14121 | 895 ft | 1 kts | 250° |
| 2026-04-27 23:07 | -38.95154 | -68.14125 | 895 ft | 0 kts | 318° |
| 2026-04-27 23:07 | -38.95152 | -68.14127 | 895 ft | 0 kts | 317° |
| 2026-04-27 23:08 | -38.95144 | -68.14129 | 895 ft | 3 kts | 360° |
| 2026-04-27 23:08 | -38.95118 | -68.14085 | 895 ft | 23 kts | 65° |
| 2026-04-27 23:08 | -38.95042 | -68.14005 | 895 ft | 13 kts | 321° |
| 2026-04-27 23:08 | -38.95034 | -68.14013 | 895 ft | 0 kts | 317° |
| 2026-04-27 23:09 | -38.95033 | -68.14014 | 895 ft | 1 kts | 317° |
| 2026-04-27 23:10 | -38.94969 | -68.14089 | 895 ft | 44 kts | 313° |
| 2026-04-27 23:10 | -38.94905 | -68.14536 | 895 ft | 74 kts | 268° |
| 2026-04-27 23:10 | -38.94906 | -68.15623 | 920 ft | 165 kts | 270° |
| 2026-04-27 23:10 | -38.94953 | -68.17199 | 1727 ft | 189 kts | 266° |
| 2026-04-27 23:11 | -38.94998 | -68.19004 | 2623 ft | 220 kts | 270° |
| 2026-04-27 23:11 | -38.95022 | -68.21150 | 3115 ft | 271 kts | 267° |
| 2026-04-27 23:11 | -38.95083 | -68.23761 | 3784 ft | 308 kts | 269° |
| 2026-04-27 23:11 | -38.95061 | -68.26425 | 5435 ft | 298 kts | 272° |
| 2026-04-27 23:12 | -38.94964 | -68.29005 | 6969 ft | 291 kts | 272° |
| 2026-04-27 23:12 | -38.95143 | -68.31496 | 8412 ft | 286 kts | 252° |
| 2026-04-27 23:12 | -38.96121 | -68.33659 | 9624 ft | 288 kts | 231° |
| 2026-04-27 23:12 | -38.97384 | -68.35636 | 10660 ft | 295 kts | 232° |
| 2026-04-27 23:13 | -38.98666 | -68.37820 | 11179 ft | 320 kts | 234° |
| 2026-04-27 23:13 | -38.99995 | -68.40199 | 11907 ft | 336 kts | 235° |
| 2026-04-27 23:13 | -39.01358 | -68.42657 | 12775 ft | 345 kts | 235° |
| 2026-04-27 23:13 | -39.02863 | -68.45061 | 13719 ft | 353 kts | 225° |
| 2026-04-27 23:14 | -39.04935 | -68.46800 | 14623 ft | 363 kts | 202° |
| 2026-04-27 23:14 | -39.07412 | -68.47301 | 15583 ft | 371 kts | 180° |
| 2026-04-27 23:14 | -39.10004 | -68.47153 | 16462 ft | 376 kts | 179° |
| 2026-04-27 23:14 | -39.12612 | -68.47055 | 17297 ft | 381 kts | 181° |
| 2026-04-27 23:15 | -39.15247 | -68.46989 | 18156 ft | 384 kts | 181° |
| 2026-04-27 23:15 | -39.17910 | -68.46919 | 18993 ft | 388 kts | 182° |
| 2026-04-27 23:15 | -39.20607 | -68.46847 | 19828 ft | 390 kts | 182° |
| 2026-04-27 23:15 | -39.23320 | -68.46774 | 20637 ft | 393 kts | 182° |
| 2026-04-27 23:16 | -39.26018 | -68.46699 | 21423 ft | 395 kts | 182° |
| 2026-04-27 23:16 | -39.28772 | -68.46628 | 22192 ft | 396 kts | 184° |
| 2026-04-27 23:16 | -39.31474 | -68.47028 | 22872 ft | 390 kts | 200° |
| 2026-04-27 23:16 | -39.33824 | -68.48523 | 23365 ft | 374 kts | 219° |
| 2026-04-27 23:17 | -39.35704 | -68.50822 | 23823 ft | 375 kts | 229° |
| 2026-04-27 23:17 | -39.37493 | -68.53261 | 24016 ft | 373 kts | 227° |
| 2026-04-27 23:17 | -39.39342 | -68.55594 | 23993 ft | 375 kts | 225° |
| 2026-04-27 23:17 | -39.41235 | -68.57902 | 23995 ft | 377 kts | 225° |
| 2026-04-27 23:18 | -39.43158 | -68.60214 | 23994 ft | 378 kts | 225° |
| 2026-04-27 23:18 | -39.45106 | -68.62530 | 23994 ft | 379 kts | 224° |
| 2026-04-27 23:18 | -39.47031 | -68.64801 | 23993 ft | 380 kts | 224° |
| 2026-04-27 23:18 | -39.48992 | -68.67104 | 23993 ft | 380 kts | 225° |
| 2026-04-27 23:19 | -39.50945 | -68.69394 | 23993 ft | 380 kts | 225° |
| 2026-04-27 23:19 | -39.52898 | -68.71677 | 23993 ft | 380 kts | 224° |
| 2026-04-27 23:19 | -39.54872 | -68.73984 | 23993 ft | 380 kts | 224° |
| 2026-04-27 23:19 | -39.56815 | -68.76251 | 23992 ft | 380 kts | 224° |
| 2026-04-27 23:20 | -39.58761 | -68.78522 | 23993 ft | 380 kts | 224° |
| 2026-04-27 23:20 | -39.60742 | -68.80833 | 23993 ft | 380 kts | 224° |
| 2026-04-27 23:20 | -39.62693 | -68.83110 | 23993 ft | 380 kts | 224° |
| 2026-04-27 23:20 | -39.64643 | -68.85387 | 23993 ft | 380 kts | 224° |
| 2026-04-27 23:21 | -39.66612 | -68.87686 | 23993 ft | 380 kts | 224° |
| 2026-04-27 23:21 | -39.68551 | -68.89951 | 23992 ft | 380 kts | 224° |
| 2026-04-27 23:21 | -39.70539 | -68.92275 | 23992 ft | 382 kts | 225° |
| 2026-04-27 23:21 | -39.72505 | -68.94574 | 23992 ft | 383 kts | 225° |
| 2026-04-27 23:22 | -39.74479 | -68.96885 | 23992 ft | 384 kts | 225° |
| 2026-04-27 23:22 | -39.76446 | -68.99190 | 23992 ft | 386 kts | 225° |
| 2026-04-27 23:22 | -39.78440 | -69.01528 | 23993 ft | 387 kts | 225° |
| 2026-04-27 23:22 | -39.80434 | -69.03870 | 23992 ft | 389 kts | 225° |
| 2026-04-27 23:23 | -39.82452 | -69.06242 | 23993 ft | 390 kts | 225° |
| 2026-04-27 23:23 | -39.84449 | -69.08598 | 23992 ft | 392 kts | 226° |
| 2026-04-27 23:23 | -39.86440 | -69.11047 | 23979 ft | 394 kts | 220° |
| 2026-04-27 23:23 | -39.88309 | -69.13699 | 23993 ft | 400 kts | 225° |
| 2026-04-27 23:24 | -39.90113 | -69.16438 | 23987 ft | 402 kts | 223° |
| 2026-04-27 23:24 | -39.92034 | -69.19087 | 23988 ft | 403 kts | 220° |
| 2026-04-27 23:24 | -39.94024 | -69.21639 | 23993 ft | 404 kts | 219° |
| 2026-04-27 23:24 | -39.96053 | -69.24140 | 23995 ft | 406 kts | 218° |
| 2026-04-27 23:25 | -39.98142 | -69.26640 | 23994 ft | 407 kts | 218° |
| 2026-04-27 23:25 | -40.00227 | -69.29083 | 23993 ft | 409 kts | 217° |
| 2026-04-27 23:25 | -40.02357 | -69.31559 | 23993 ft | 410 kts | 217° |
| 2026-04-27 23:25 | -40.04483 | -69.34029 | 23992 ft | 411 kts | 217° |
| 2026-04-27 23:26 | -40.06614 | -69.36525 | 23992 ft | 413 kts | 217° |
| 2026-04-27 23:26 | -40.08753 | -69.39068 | 23992 ft | 414 kts | 218° |
| 2026-04-27 23:26 | -40.10840 | -69.41589 | 23992 ft | 414 kts | 218° |
| 2026-04-27 23:26 | -40.12949 | -69.44167 | 23993 ft | 415 kts | 218° |
| 2026-04-27 23:27 | -40.15035 | -69.46734 | 23993 ft | 415 kts | 219° |
| 2026-04-27 23:27 | -40.17141 | -69.49342 | 23992 ft | 415 kts | 219° |
| 2026-04-27 23:27 | -40.19233 | -69.51941 | 23818 ft | 418 kts | 219° |
| 2026-04-27 23:27 | -40.20625 | -69.53673 | 23450 ft | 419 kts | 219° |
| 2026-04-27 23:28 | -40.23409 | -69.57154 | 22750 ft | 413 kts | 219° |
| 2026-04-27 23:28 | -40.25482 | -69.59751 | 22223 ft | 411 kts | 220° |
| 2026-04-27 23:28 | -40.27511 | -69.62296 | 21706 ft | 409 kts | 220° |
| 2026-04-27 23:28 | -40.28892 | -69.64030 | 21352 ft | 408 kts | 220° |
| 2026-04-27 23:29 | -40.31610 | -69.67448 | 20650 ft | 405 kts | 221° |
| 2026-04-27 23:29 | -40.33624 | -69.69984 | 20126 ft | 403 kts | 221° |
| 2026-04-27 23:29 | -40.35650 | -69.72538 | 19611 ft | 415 kts | 221° |
| 2026-04-27 23:29 | -40.37032 | -69.74278 | 19269 ft | 424 kts | 222° |
| 2026-04-27 23:30 | -40.39895 | -69.77898 | 18566 ft | 437 kts | 222° |
| 2026-04-27 23:30 | -40.42091 | -69.80687 | 18042 ft | 446 kts | 223° |
| 2026-04-27 23:30 | -40.44305 | -69.83506 | 17508 ft | 441 kts | 223° |
| 2026-04-27 23:30 | -40.46493 | -69.86294 | 16978 ft | 436 kts | 223° |
| 2026-04-27 23:31 | -40.48670 | -69.89066 | 16465 ft | 432 kts | 223° |
| 2026-04-27 23:31 | -40.50778 | -69.91752 | 15972 ft | 428 kts | 223° |
| 2026-04-27 23:31 | -40.52918 | -69.94479 | 15469 ft | 425 kts | 224° |
| 2026-04-27 23:31 | -40.55029 | -69.97173 | 14967 ft | 421 kts | 224° |
| 2026-04-27 23:32 | -40.57111 | -69.99831 | 14468 ft | 417 kts | 224° |
| 2026-04-27 23:32 | -40.59167 | -70.02458 | 13970 ft | 413 kts | 224° |
| 2026-04-27 23:32 | -40.61215 | -70.05077 | 13468 ft | 409 kts | 224° |
| 2026-04-27 23:32 | -40.63244 | -70.07674 | 12967 ft | 405 kts | 224° |
| 2026-04-27 23:33 | -40.65231 | -70.10217 | 12470 ft | 401 kts | 224° |
| 2026-04-27 23:33 | -40.67221 | -70.12769 | 11969 ft | 397 kts | 224° |
| 2026-04-27 23:33 | -40.69192 | -70.15297 | 11467 ft | 395 kts | 224° |
| 2026-04-27 23:33 | -40.71146 | -70.17803 | 10969 ft | 393 kts | 224° |
| 2026-04-27 23:34 | -40.73098 | -70.20311 | 10467 ft | 391 kts | 224° |
| 2026-04-27 23:34 | -40.75018 | -70.22779 | 9971 ft | 389 kts | 224° |
| 2026-04-27 23:34 | -40.76958 | -70.25275 | 9466 ft | 386 kts | 225° |
| 2026-04-27 23:34 | -40.78860 | -70.27725 | 8997 ft | 384 kts | 225° |
| 2026-04-27 23:35 | -40.80765 | -70.30180 | 8555 ft | 381 kts | 225° |
| 2026-04-27 23:35 | -40.82624 | -70.32577 | 8152 ft | 369 kts | 225° |
| 2026-04-27 23:35 | -40.84396 | -70.34862 | 7753 ft | 351 kts | 225° |
| 2026-04-27 23:35 | -40.86118 | -70.37083 | 7395 ft | 335 kts | 225° |
| 2026-04-27 23:36 | -40.87713 | -70.39146 | 7334 ft | 316 kts | 226° |
| 2026-04-27 23:36 | -40.89246 | -70.41132 | 7341 ft | 300 kts | 226° |
| 2026-04-27 23:36 | -40.90725 | -70.43052 | 7354 ft | 301 kts | 226° |
| 2026-04-27 23:36 | -40.92225 | -70.45003 | 7353 ft | 306 kts | 226° |
| 2026-04-27 23:37 | -40.93756 | -70.46989 | 7347 ft | 306 kts | 226° |
| 2026-04-27 23:37 | -40.95244 | -70.48917 | 7338 ft | 293 kts | 226° |
| 2026-04-27 23:37 | -40.96654 | -70.50748 | 7343 ft | 282 kts | 226° |
| 2026-04-27 23:37 | -40.98046 | -70.52560 | 7349 ft | 282 kts | 226° |
| 2026-04-27 23:38 | -40.99415 | -70.54340 | 7342 ft | 267 kts | 226° |
| 2026-04-27 23:38 | -41.00703 | -70.56016 | 7343 ft | 250 kts | 226° |
| 2026-04-27 23:38 | -41.01921 | -70.57607 | 7356 ft | 245 kts | 226° |
| 2026-04-27 23:38 | -41.03128 | -70.59186 | 7362 ft | 246 kts | 226° |
| 2026-04-27 23:39 | -41.04340 | -70.60767 | 7357 ft | 243 kts | 226° |
| 2026-04-27 23:39 | -41.05537 | -70.62328 | 7343 ft | 235 kts | 226° |
| 2026-04-27 23:39 | -41.06632 | -70.63754 | 7339 ft | 208 kts | 227° |
| 2026-04-27 23:39 | -41.07616 | -70.65043 | 7333 ft | 196 kts | 228° |
| 2026-04-27 23:40 | -41.08585 | -70.66315 | 7349 ft | 197 kts | 227° |
| 2026-04-27 23:40 | -41.09556 | -70.67585 | 7348 ft | 196 kts | 227° |
| 2026-04-27 23:40 | -41.10535 | -70.68864 | 7347 ft | 196 kts | 227° |
| 2026-04-27 23:40 | -41.11505 | -70.70133 | 7346 ft | 195 kts | 229° |
| 2026-04-27 23:41 | -41.12310 | -70.71533 | 7323 ft | 193 kts | 234° |
| 2026-04-27 23:41 | -41.13196 | -70.72876 | 7318 ft | 192 kts | 234° |
| 2026-04-27 23:41 | -41.14155 | -70.74135 | 7278 ft | 199 kts | 223° |
| 2026-04-27 23:41 | -41.15191 | -70.75250 | 7006 ft | 194 kts | 220° |
| 2026-04-27 23:42 | -41.16266 | -70.76129 | 6960 ft | 177 kts | 214° |
| 2026-04-27 23:42 | -41.17329 | -70.77062 | 6410 ft | 185 kts | 217° |
| 2026-04-27 23:42 | -41.18360 | -70.77885 | 6391 ft | 165 kts | 220° |
| 2026-04-27 23:42 | -41.19022 | -70.78998 | 6194 ft | 151 kts | 238° |
| 2026-04-27 23:43 | -41.19789 | -70.80087 | 6030 ft | 177 kts | 226° |
| 2026-04-27 23:43 | -41.20716 | -70.81229 | 6115 ft | 184 kts | 228° |
| 2026-04-27 23:43 | -41.21310 | -70.82003 | 6223 ft | 175 kts | 229° |
| 2026-04-27 23:43 | -41.22091 | -70.83055 | 6456 ft | 151 kts | 231° |
| 2026-04-27 23:44 | -41.22884 | -70.84480 | 6485 ft | 144 kts | 243° |
| 2026-04-27 23:44 | -41.23393 | -70.85568 | 6512 ft | 133 kts | 242° |
| 2026-04-27 23:44 | -41.23883 | -70.86616 | 6412 ft | 132 kts | 241° |
| 2026-04-27 23:44 | -41.24394 | -70.87583 | 6489 ft | 128 kts | 240° |
| 2026-04-27 23:45 | -41.24790 | -70.88606 | 6642 ft | 124 kts | 253° |
| 2026-04-27 23:45 | -41.24821 | -70.89758 | 6662 ft | 128 kts | 287° |
| 2026-04-27 23:45 | -41.24410 | -70.90776 | 6844 ft | 125 kts | 300° |
| 2026-04-27 23:45 | -41.23927 | -70.91777 | 6876 ft | 131 kts | 301° |
| 2026-04-27 23:46 | -41.23488 | -70.92879 | 6731 ft | 141 kts | 294° |
| 2026-04-27 23:46 | -41.22977 | -70.94015 | 6508 ft | 143 kts | 301° |
| 2026-04-27 23:46 | -41.22467 | -70.95178 | 6071 ft | 144 kts | 297° |
| 2026-04-27 23:46 | -41.21990 | -70.96238 | 5801 ft | 129 kts | 309° |
| 2026-04-27 23:47 | -41.21489 | -70.97195 | 5413 ft | 128 kts | 294° |
| 2026-04-27 23:47 | -41.21156 | -70.98266 | 5213 ft | 126 kts | 288° |
| 2026-04-27 23:47 | -41.20941 | -70.99406 | 5140 ft | 126 kts | 285° |
| 2026-04-27 23:47 | -41.20695 | -71.00520 | 4980 ft | 126 kts | 290° |
| 2026-04-27 23:48 | -41.20317 | -71.01558 | 4815 ft | 123 kts | 296° |
| 2026-04-27 23:48 | -41.19894 | -71.02530 | 4691 ft | 120 kts | 304° |
| 2026-04-27 23:48 | -41.19441 | -71.03439 | 4571 ft | 118 kts | 300° |
| 2026-04-27 23:48 | -41.19032 | -71.04388 | 4447 ft | 120 kts | 296° |
| 2026-04-27 23:49 | -41.18719 | -71.05415 | 4371 ft | 122 kts | 290° |
| 2026-04-27 23:49 | -41.18401 | -71.06471 | 4271 ft | 120 kts | 297° |
| 2026-04-27 23:49 | -41.18033 | -71.07446 | 3976 ft | 120 kts | 299° |
| 2026-04-27 23:49 | -41.17648 | -71.08394 | 3804 ft | 115 kts | 294° |
| 2026-04-27 23:50 | -41.17362 | -71.09383 | 3755 ft | 114 kts | 294° |
| 2026-04-27 23:50 | -41.17004 | -71.10345 | 3609 ft | 121 kts | 298° |
| 2026-04-27 23:50 | -41.16635 | -71.11362 | 3400 ft | 123 kts | 294° |
| 2026-04-27 23:50 | -41.16316 | -71.12366 | 3239 ft | 113 kts | 296° |
| 2026-04-27 23:51 | -41.15977 | -71.13326 | 3057 ft | 116 kts | 296° |
| 2026-04-27 23:51 | -41.15642 | -71.14288 | 2858 ft | 114 kts | 297° |
| 2026-04-27 23:51 | -41.15341 | -71.15129 | 2783 ft | 78 kts | 294° |
| 2026-04-27 23:51 | -41.15197 | -71.15530 | 2783 ft | 28 kts | 311° |
| 2026-04-27 23:52 | -41.15056 | -71.15591 | 2782 ft | 15 kts | 351° |
| 2026-04-27 23:52 | -41.15004 | -71.15641 | 2782 ft | 0 kts | 303° |
| 2026-04-27 23:52 | -41.14971 | -71.15723 | 2782 ft | 20 kts | 295° |
| 2026-04-27 23:53 | -41.14911 | -71.15904 | 2782 ft | 32 kts | 295° |
| 2026-04-27 23:53 | -41.14840 | -71.16114 | 2782 ft | 0 kts | 292° |
| 2026-04-27 23:53 | -41.14840 | -71.16116 | 2782 ft | 0 kts | 292° |
| 2026-04-27 23:54 | -41.14820 | -71.16174 | 2782 ft | 11 kts | 299° |
| 2026-04-27 23:54 | -41.14760 | -71.16297 | 2782 ft | 11 kts | 297° |
| 2026-04-27 23:54 | -41.14751 | -71.16321 | 2782 ft | 0 kts | 292° |